Thunder radar more information blitzortung!


Radar de pluja more information rain snow radar


Visita la nostra xarxa de llocs de meteo:

Template documentation
and downloads

And another site



No particular awareness of the weather is required.    There are no Weather-warnings

Pagina Historial Weather Underground text

Diari Resum May 17, 2017 Unitats:  Tant    Imperial   Mètric
« Previous Dia
SegĂźent Dia »
Diari Setmana Mensual Anual Personalitzada
  Maxima: Minima: Media:
Temperatura: 84.4 °F /  29.1 °C 57.6 °F /  14.2 °C 72.7 °F /  22.6 °C
Punt de rosada: 54.3 °F /  12.4 °C 39.2 °F /  4.0 °C 45.7 °F /  7.6 °C
Humitat: 68 % 25 % 40 %
Wind Speed: 12.7 mph /  20.4 km/h - 3.5 mph /  5.6 km/h
RĂ fegues de vent: 12.7 mph /  20.4 km/h - -
Vent:- - SSW
Pression baro: 30.3 in /  1026.0 hPa 29.9 in /  1013.8 hPa -
Precipitacions: 0 in /  0.0 mm    
Historical Graphs
 
 
Dades de taula per May 17, 2017
Temps Temperatura Punt de rosada Pression baro Vent Wind Speed RĂ fegues de vent Humitat Rainfall Rate (Hourly)
00:02 66 °F /  18.9 °C 48.4 °F /  9.1 °C 30.3 in /  1026.0 hPa SW 2.3 mph /  3.7 km/h 2.3 mph /  3.7 km/h 53 % 0 in /  0.0 mm
00:05 59 °F /  15.0 °C 47.7 °F /  8.7 °C 30.2 in /  1023.9 hPa Calm     66 % 0 in /  0.0 mm
00:07 66 °F /  18.9 °C 48.4 °F /  9.1 °C 30.3 in /  1026.0 hPa WSW 1.6 mph /  2.6 km/h 1.6 mph /  2.6 km/h 53 % 0 in /  0.0 mm
00:15 59 °F /  15.0 °C 47.7 °F /  8.7 °C 30.2 in /  1022.9 hPa Calm     66 % 0 in /  0.0 mm
00:25 59.2 °F /  15.1 °C 48.2 °F /  9.0 °C 30.2 in /  1023.9 hPa Calm     67 % 0 in /  0.0 mm
00:35 59.4 °F /  15.2 °C 48.7 °F /  9.3 °C 30.2 in /  1023.9 hPa Calm     68 % 0 in /  0.0 mm
00:45 59.4 °F /  15.2 °C 48.7 °F /  9.3 °C 30.2 in /  1022.9 hPa Calm     68 % 0 in /  0.0 mm
00:55 59.2 °F /  15.1 °C 48.2 °F /  9.0 °C 30.2 in /  1022.9 hPa Calm     67 % 0 in /  0.0 mm
01:05 59 °F /  15.0 °C 48 °F /  8.9 °C 30.2 in /  1022.9 hPa Calm     67 % 0 in /  0.0 mm
01:15 58.3 °F /  14.6 °C 47.5 °F /  8.6 °C 30.2 in /  1022.9 hPa Calm     67 % 0 in /  0.0 mm
01:25 58.3 °F /  14.6 °C 47.8 °F /  8.8 °C 30.2 in /  1022.9 hPa Calm   1 mph /  1.6 km/h 68 % 0 in /  0.0 mm
01:35 58.1 °F /  14.5 °C 47.7 °F /  8.7 °C 30.2 in /  1022.9 hPa Calm     68 % 0 in /  0.0 mm
01:45 57.9 °F /  14.4 °C 47.5 °F /  8.6 °C 30.2 in /  1022.9 hPa Calm   2 mph /  3.2 km/h 68 % 0 in /  0.0 mm
01:55 57.6 °F /  14.2 °C 47.1 °F /  8.4 °C 30.2 in /  1022.9 hPa SE 2 mph /  3.2 km/h 2 mph /  3.2 km/h 68 % 0 in /  0.0 mm
02:05 57.7 °F /  14.3 °C 47.1 °F /  8.4 °C 30.2 in /  1022.9 hPa Calm   1 mph /  1.6 km/h 68 % 0 in /  0.0 mm
02:15 58.1 °F /  14.5 °C 47.1 °F /  8.4 °C 30.2 in /  1022.9 hPa SW 1 mph /  1.6 km/h 2 mph /  3.2 km/h 67 % 0 in /  0.0 mm
02:25 59 °F /  15.0 °C 47.7 °F /  8.7 °C 30.2 in /  1022.9 hPa Calm   1 mph /  1.6 km/h 66 % 0 in /  0.0 mm
02:35 60.1 °F /  15.6 °C 47.8 °F /  8.8 °C 30.2 in /  1022.9 hPa Calm     64 % 0 in /  0.0 mm
02:45 61.9 °F /  16.6 °C 49.6 °F /  9.8 °C 30.2 in /  1022.9 hPa Calm     64 % 0 in /  0.0 mm
02:55 63.3 °F /  17.4 °C 50.2 °F /  10.1 °C 30.2 in /  1022.9 hPa Calm     62 % 0 in /  0.0 mm
03:05 62.6 °F /  17.0 °C 48.9 °F /  9.4 °C 30.2 in /  1022.9 hPa Calm   2 mph /  3.2 km/h 61 % 0 in /  0.0 mm
03:15 64.2 °F /  17.9 °C 50.5 °F /  10.3 °C 30.2 in /  1021.9 hPa Calm   2 mph /  3.2 km/h 61 % 0 in /  0.0 mm
03:25 64.9 °F /  18.3 °C 50.4 °F /  10.2 °C 30.2 in /  1021.9 hPa SSE 1 mph /  1.6 km/h 2 mph /  3.2 km/h 59 % 0 in /  0.0 mm
03:35 64 °F /  17.8 °C 49.5 °F /  9.7 °C 30.2 in /  1021.9 hPa SSW 2 mph /  3.2 km/h 2 mph /  3.2 km/h 59 % 0 in /  0.0 mm
03:45 64.2 °F /  17.9 °C 49.1 °F /  9.5 °C 30.2 in /  1021.9 hPa Calm   2 mph /  3.2 km/h 58 % 0 in /  0.0 mm
03:55 65.8 °F /  18.8 °C 50.5 °F /  10.3 °C 30.2 in /  1021.9 hPa SSW 1 mph /  1.6 km/h 2 mph /  3.2 km/h 58 % 0 in /  0.0 mm
04:05 67.3 °F /  19.6 °C 51.1 °F /  10.6 °C 30.2 in /  1021.9 hPa South 1 mph /  1.6 km/h 2 mph /  3.2 km/h 56 % 0 in /  0.0 mm
04:15 68 °F /  20.0 °C 51.3 °F /  10.7 °C 30.2 in /  1021.9 hPa South 1 mph /  1.6 km/h 2 mph /  3.2 km/h 55 % 0 in /  0.0 mm
04:25 69.6 °F /  20.9 °C 52.2 °F /  11.2 °C 30.2 in /  1021.9 hPa South 1 mph /  1.6 km/h 2 mph /  3.2 km/h 54 % 0 in /  0.0 mm
04:35 69.8 °F /  21.0 °C 51.4 °F /  10.8 °C 30.2 in /  1021.9 hPa ENE 1 mph /  1.6 km/h 3 mph /  4.8 km/h 52 % 0 in /  0.0 mm
04:45 70.7 °F /  21.5 °C 52.2 °F /  11.2 °C 30.2 in /  1021.9 hPa NE 1 mph /  1.6 km/h 2 mph /  3.2 km/h 52 % 0 in /  0.0 mm
04:55 71.8 °F /  22.1 °C 52.7 °F /  11.5 °C 30.2 in /  1021.9 hPa ENE 2 mph /  3.2 km/h 2 mph /  3.2 km/h 51 % 0 in /  0.0 mm
05:05 72.7 °F /  22.6 °C 53.1 °F /  11.7 °C 30.2 in /  1021.9 hPa ESE 1 mph /  1.6 km/h 2 mph /  3.2 km/h 50 % 0 in /  0.0 mm
05:15 73.9 °F /  23.3 °C 53.6 °F /  12.0 °C 30.2 in /  1021.9 hPa Calm   2 mph /  3.2 km/h 49 % 0 in /  0.0 mm
05:25 73.2 °F /  22.9 °C 52.9 °F /  11.6 °C 30.2 in /  1021.9 hPa ENE 2 mph /  3.2 km/h 3 mph /  4.8 km/h 49 % 0 in /  0.0 mm
05:35 74.7 °F /  23.7 °C 53.1 °F /  11.7 °C 30.2 in /  1021.9 hPa East 2 mph /  3.2 km/h 2 mph /  3.2 km/h 47 % 0 in /  0.0 mm
05:45 74.8 °F /  23.8 °C 52.2 °F /  11.2 °C 30.2 in /  1021.9 hPa ESE 1 mph /  1.6 km/h 3 mph /  4.8 km/h 45 % 0 in /  0.0 mm
05:55 75.2 °F /  24.0 °C 52.3 °F /  11.3 °C 30.2 in /  1021.9 hPa East 1 mph /  1.6 km/h 3 mph /  4.8 km/h 45 % 0 in /  0.0 mm
06:05 76.1 °F /  24.5 °C 52.5 °F /  11.4 °C 30.2 in /  1021.9 hPa East 2 mph /  3.2 km/h 3 mph /  4.8 km/h 44 % 0 in /  0.0 mm
06:15 75.9 °F /  24.4 °C 51.3 °F /  10.7 °C 30.2 in /  1021.9 hPa ENE 2 mph /  3.2 km/h 2 mph /  3.2 km/h 42 % 0 in /  0.0 mm
06:20 76.3 °F /  24.6 °C 51.4 °F /  10.8 °C 30.2 in /  1021.9 hPa ENE 2 mph /  3.2 km/h 2 mph /  3.2 km/h 42 % 0 in /  0.0 mm
11:22 76.3 °F /  24.6 °C 51.4 °F /  10.8 °C 30.2 in /  1021.9 hPa South 2.3 mph /  3.7 km/h 2.3 mph /  3.7 km/h 42 % 0 in /  0.0 mm
11:27 77.7 °F /  25.4 °C 52.2 °F /  11.2 °C 30.2 in /  1021.9 hPa SW 3.5 mph /  5.6 km/h 3.5 mph /  5.6 km/h 41 % 0 in /  0.0 mm
11:32 78.3 °F /  25.7 °C 52.5 °F /  11.4 °C 30.2 in /  1021.9 hPa SE 3.5 mph /  5.6 km/h 3.5 mph /  5.6 km/h 41 % 0 in /  0.0 mm
11:37 77.5 °F /  25.3 °C 51.3 °F /  10.7 °C 30.2 in /  1021.9 hPa East 2.9 mph /  4.7 km/h 2.9 mph /  4.7 km/h 40 % 0 in /  0.0 mm
11:42 77.5 °F /  25.3 °C 52 °F /  11.1 °C 30.2 in /  1021.9 hPa ENE 2.3 mph /  3.7 km/h 2.3 mph /  3.7 km/h 41 % 0 in /  0.0 mm
11:47 77.7 °F /  25.4 °C 51.4 °F /  10.8 °C 30.2 in /  1021.9 hPa ENE 5.4 mph /  8.7 km/h 5.4 mph /  8.7 km/h 40 % 0 in /  0.0 mm
11:52 77.2 °F /  25.1 °C 51.1 °F /  10.6 °C 30.2 in /  1021.9 hPa ESE 2.3 mph /  3.7 km/h 2.3 mph /  3.7 km/h 40 % 0 in /  0.0 mm
11:57 77.9 °F /  25.5 °C 51.6 °F /  10.9 °C 30.2 in /  1021.9 hPa ESE 6.9 mph /  11.1 km/h 6.9 mph /  11.1 km/h 40 % 0 in /  0.0 mm
12:02 77.5 °F /  25.3 °C 51.3 °F /  10.7 °C 30.2 in /  1021.9 hPa ENE 3.5 mph /  5.6 km/h 3.5 mph /  5.6 km/h 40 % 0 in /  0.0 mm
12:07 78.1 °F /  25.6 °C 51.8 °F /  11.0 °C 30.2 in /  1021.9 hPa ESE 4.7 mph /  7.6 km/h 4.7 mph /  7.6 km/h 40 % 0 in /  0.0 mm
12:12 78.1 °F /  25.6 °C 51.8 °F /  11.0 °C 30.2 in /  1021.9 hPa SSE 4.6 mph /  7.4 km/h 4.6 mph /  7.4 km/h 40 % 0 in /  0.0 mm
12:17 78.8 °F /  26.0 °C 52.3 °F /  11.3 °C 30.2 in /  1021.9 hPa SW 5.8 mph /  9.3 km/h 5.8 mph /  9.3 km/h 40 % 0 in /  0.0 mm
12:19 79.3 °F /  26.3 °C 52.9 °F /  11.6 °C 30.2 in /  1021.9 hPa SW 3.5 mph /  5.6 km/h 3.5 mph /  5.6 km/h 40 % 0 in /  0.0 mm
12:24 80.2 °F /  26.8 °C 53.8 °F /  12.1 °C 30.2 in /  1022.9 hPa SSE 3.8 mph /  6.1 km/h 3.8 mph /  6.1 km/h 40 % 0 in /  0.0 mm
12:29 81.7 °F /  27.6 °C 54.3 °F /  12.4 °C 30.2 in /  1022.9 hPa East 3.5 mph /  5.6 km/h 3.5 mph /  5.6 km/h 39 % 0 in /  0.0 mm
12:34 81.1 °F /  27.3 °C 53.8 °F /  12.1 °C 30.2 in /  1022.9 hPa SSW 3.5 mph /  5.6 km/h 3.5 mph /  5.6 km/h 39 % 0 in /  0.0 mm
12:39 81.5 °F /  27.5 °C 53.4 °F /  11.9 °C 30.2 in /  1022.9 hPa SSE 4.9 mph /  7.9 km/h 4.9 mph /  7.9 km/h 38 % 0 in /  0.0 mm
12:44 80.8 °F /  27.1 °C 52.9 °F /  11.6 °C 30.2 in /  1022.9 hPa SSE 5.8 mph /  9.3 km/h 5.8 mph /  9.3 km/h 38 % 0 in /  0.0 mm
12:49 81.5 °F /  27.5 °C 53.4 °F /  11.9 °C 30.2 in /  1022.9 hPa ENE 4.6 mph /  7.4 km/h 4.6 mph /  7.4 km/h 38 % 0 in /  0.0 mm
12:54 80.8 °F /  27.1 °C 52.9 °F /  11.6 °C 30.2 in /  1021.9 hPa East 5.8 mph /  9.3 km/h 5.8 mph /  9.3 km/h 38 % 0 in /  0.0 mm
12:59 81 °F /  27.2 °C 53.8 °F /  12.1 °C 30.2 in /  1021.9 hPa NE 3.3 mph /  5.3 km/h 3.3 mph /  5.3 km/h 39 % 0 in /  0.0 mm
13:04 80.4 °F /  26.9 °C 53.2 °F /  11.8 °C 30.2 in /  1021.9 hPa ESE 4.6 mph /  7.4 km/h 4.6 mph /  7.4 km/h 39 % 0 in /  0.0 mm
13:09 80.4 °F /  26.9 °C 52.5 °F /  11.4 °C 30.2 in /  1021.9 hPa WSW 2 mph /  3.2 km/h 2 mph /  3.2 km/h 38 % 0 in /  0.0 mm
13:14 80.6 °F /  27.0 °C 51.3 °F /  10.7 °C 30.2 in /  1021.9 hPa ENE 4.6 mph /  7.4 km/h 4.6 mph /  7.4 km/h 36 % 0 in /  0.0 mm
13:19 80.8 °F /  27.1 °C 51.3 °F /  10.7 °C 30.2 in /  1021.9 hPa SW 4.6 mph /  7.4 km/h 4.6 mph /  7.4 km/h 36 % 0 in /  0.0 mm
13:24 81.9 °F /  27.7 °C 52.3 °F /  11.3 °C 30.2 in /  1021.9 hPa SW 2.3 mph /  3.7 km/h 2.4 mph /  3.9 km/h 36 % 0 in /  0.0 mm
13:29 82.8 °F /  28.2 °C 52.3 °F /  11.3 °C 30.2 in /  1021.9 hPa SW 3.5 mph /  5.6 km/h 3.5 mph /  5.6 km/h 35 % 0 in /  0.0 mm
13:34 83.3 °F /  28.5 °C 51.3 °F /  10.7 °C 30.2 in /  1021.9 hPa SSW 6.9 mph /  11.1 km/h 6.9 mph /  11.1 km/h 33 % 0 in /  0.0 mm
13:39 83.1 °F /  28.4 °C 51.1 °F /  10.6 °C 30.2 in /  1020.9 hPa SW 5.8 mph /  9.3 km/h 5.8 mph /  9.3 km/h 33 % 0 in /  0.0 mm
13:44 82.4 °F /  28.0 °C 48.7 °F /  9.3 °C 30.2 in /  1020.9 hPa West 6.9 mph /  11.1 km/h 6.9 mph /  11.1 km/h 31 % 0 in /  0.0 mm
13:49 83.1 °F /  28.4 °C 49.3 °F /  9.6 °C 30.2 in /  1020.9 hPa West 5.8 mph /  9.3 km/h 5.8 mph /  9.3 km/h 31 % 0 in /  0.0 mm
13:54 83.8 °F /  28.8 °C 49.1 °F /  9.5 °C 30.2 in /  1020.9 hPa West 9.4 mph /  15.1 km/h 9.4 mph /  15.1 km/h 30 % 0 in /  0.0 mm
13:59 83.5 °F /  28.6 °C 48.7 °F /  9.3 °C 30.2 in /  1020.9 hPa South 5.8 mph /  9.3 km/h 5.8 mph /  9.3 km/h 30 % 0 in /  0.0 mm
14:04 83.7 °F /  28.7 °C 48 °F /  8.9 °C 30.2 in /  1020.9 hPa West 11.5 mph /  18.5 km/h 11.5 mph /  18.5 km/h 29 % 0 in /  0.0 mm
14:09 83.5 °F /  28.6 °C 47.8 °F /  8.8 °C 30.1 in /  1019.9 hPa WSW 6.4 mph /  10.3 km/h 6.4 mph /  10.3 km/h 29 % 0 in /  0.0 mm
14:14 83.5 °F /  28.6 °C 47.8 °F /  8.8 °C 30.1 in /  1019.9 hPa West 5.8 mph /  9.3 km/h 5.8 mph /  9.3 km/h 29 % 0 in /  0.0 mm
14:19 83.3 °F /  28.5 °C 47.7 °F /  8.7 °C 30.1 in /  1019.9 hPa SW 4.6 mph /  7.4 km/h 4.6 mph /  7.4 km/h 29 % 0 in /  0.0 mm
14:24 83.3 °F /  28.5 °C 46.8 °F /  8.2 °C 30.1 in /  1019.9 hPa West 6.9 mph /  11.1 km/h 6.9 mph /  11.1 km/h 28 % 0 in /  0.0 mm
14:29 83.7 °F /  28.7 °C 47.1 °F /  8.4 °C 30.1 in /  1019.9 hPa South 8.1 mph /  13.0 km/h 8.1 mph /  13.0 km/h 28 % 0 in /  0.0 mm
14:34 83.7 °F /  28.7 °C 47.1 °F /  8.4 °C 30.1 in /  1019.9 hPa SW 6.9 mph /  11.1 km/h 6.9 mph /  11.1 km/h 28 % 0 in /  0.0 mm
14:39 83.3 °F /  28.5 °C 46.8 °F /  8.2 °C 30.1 in /  1019.9 hPa SW 5.8 mph /  9.3 km/h 5.8 mph /  9.3 km/h 28 % 0 in /  0.0 mm
14:44 83.5 °F /  28.6 °C 46.9 °F /  8.3 °C 30.1 in /  1019.9 hPa WSW 4.9 mph /  7.9 km/h 4.9 mph /  7.9 km/h 28 % 0 in /  0.0 mm
14:49 83.7 °F /  28.7 °C 47.1 °F /  8.4 °C 30.1 in /  1019.9 hPa SSW 3.5 mph /  5.6 km/h 3.5 mph /  5.6 km/h 28 % 0 in /  0.0 mm
14:54 83.5 °F /  28.6 °C 46.9 °F /  8.3 °C 30.1 in /  1019.9 hPa SW 10.4 mph /  16.7 km/h 10.4 mph /  16.7 km/h 28 % 0 in /  0.0 mm
14:55 83.5 °F /  28.6 °C 46.9 °F /  8.3 °C 30.1 in /  1019.9 hPa WSW 10.4 mph /  16.7 km/h 10.4 mph /  16.7 km/h 28 % 0 in /  0.0 mm
15:00 83.3 °F /  28.5 °C 46.8 °F /  8.2 °C 30.1 in /  1019.9 hPa SSW 7.4 mph /  11.9 km/h 7.4 mph /  11.9 km/h 28 % 0 in /  0.0 mm
15:05 83.8 °F /  28.8 °C 47.1 °F /  8.4 °C 30.1 in /  1019.9 hPa SW 6.9 mph /  11.1 km/h 6.9 mph /  11.1 km/h 28 % 0 in /  0.0 mm
15:10 84.4 °F /  29.1 °C 46.8 °F /  8.2 °C 30.1 in /  1018.8 hPa SW 5.8 mph /  9.3 km/h 5.9 mph /  9.5 km/h 27 % 0 in /  0.0 mm
15:15 83.8 °F /  28.8 °C 46.2 °F /  7.9 °C 30.1 in /  1018.8 hPa SSW 4.7 mph /  7.6 km/h 4.7 mph /  7.6 km/h 27 % 0 in /  0.0 mm
15:20 83.1 °F /  28.4 °C 45.7 °F /  7.6 °C 30.1 in /  1018.8 hPa SW 10.4 mph /  16.7 km/h 10.4 mph /  16.7 km/h 27 % 0 in /  0.0 mm
15:25 83.8 °F /  28.8 °C 46.2 °F /  7.9 °C 30.1 in /  1018.8 hPa WSW 5.8 mph /  9.3 km/h 5.9 mph /  9.5 km/h 27 % 0 in /  0.0 mm
15:30 83.8 °F /  28.8 °C 46.2 °F /  7.9 °C 30.1 in /  1018.8 hPa WSW 7.1 mph /  11.4 km/h 7.1 mph /  11.4 km/h 27 % 0 in /  0.0 mm
15:35 83.8 °F /  28.8 °C 46.2 °F /  7.9 °C 30.1 in /  1018.8 hPa SW 9.2 mph /  14.8 km/h 9.2 mph /  14.8 km/h 27 % 0 in /  0.0 mm
15:45 84.2 °F /  29.0 °C 45.7 °F /  7.6 °C 30.1 in /  1018.8 hPa SW 10.4 mph /  16.7 km/h 10.4 mph /  16.7 km/h 26 % 0 in /  0.0 mm
15:50 83.7 °F /  28.7 °C 45.1 °F /  7.3 °C 30.1 in /  1018.8 hPa WSW 5.8 mph /  9.3 km/h 5.8 mph /  9.3 km/h 26 % 0 in /  0.0 mm
15:55 83.5 °F /  28.6 °C 45 °F /  7.2 °C 30.1 in /  1018.8 hPa SSW 10.4 mph /  16.7 km/h 10.4 mph /  16.7 km/h 26 % 0 in /  0.0 mm
16:00 83.3 °F /  28.5 °C 44.8 °F /  7.1 °C 30.1 in /  1018.8 hPa SSW 6.9 mph /  11.1 km/h 6.9 mph /  11.1 km/h 26 % 0 in /  0.0 mm
16:05 82.9 °F /  28.3 °C 44.4 °F /  6.9 °C 30.1 in /  1018.8 hPa South 9.2 mph /  14.8 km/h 9.2 mph /  14.8 km/h 26 % 0 in /  0.0 mm
16:10 82.6 °F /  28.1 °C 44.2 °F /  6.8 °C 30.1 in /  1018.8 hPa South 6.9 mph /  11.1 km/h 6.9 mph /  11.1 km/h 26 % 0 in /  0.0 mm
16:15 82.8 °F /  28.2 °C 44.4 °F /  6.9 °C 30.1 in /  1018.8 hPa WNW 9.7 mph /  15.6 km/h 9.7 mph /  15.6 km/h 26 % 0 in /  0.0 mm
16:20 82.9 °F /  28.3 °C 43.5 °F /  6.4 °C 30.1 in /  1018.8 hPa West 10 mph /  16.1 km/h 10 mph /  16.1 km/h 25 % 0 in /  0.0 mm
16:21 82.6 °F /  28.1 °C 43.2 °F /  6.2 °C 30.1 in /  1018.8 hPa SW 8.1 mph /  13.0 km/h 8.1 mph /  13.0 km/h 25 % 0 in /  0.0 mm
16:26 82.2 °F /  27.9 °C 43.9 °F /  6.6 °C 30.1 in /  1018.8 hPa South 8.1 mph /  13.0 km/h 8.1 mph /  13.0 km/h 26 % 0 in /  0.0 mm
16:31 81.7 °F /  27.6 °C 43.5 °F /  6.4 °C 30.1 in /  1018.8 hPa SW 12.7 mph /  20.4 km/h 12.7 mph /  20.4 km/h 26 % 0 in /  0.0 mm
16:36 81.3 °F /  27.4 °C 43.2 °F /  6.2 °C 30.1 in /  1018.8 hPa WSW 6.9 mph /  11.1 km/h 6.9 mph /  11.1 km/h 26 % 0 in /  0.0 mm
16:41 81.1 °F /  27.3 °C 43 °F /  6.1 °C 30.1 in /  1018.8 hPa WSW 5.6 mph /  9.0 km/h 5.6 mph /  9.0 km/h 26 % 0 in /  0.0 mm
16:46 80.2 °F /  26.8 °C 41.2 °F /  5.1 °C 30.1 in /  1018.8 hPa SW 8.1 mph /  13.0 km/h 8.1 mph /  13.0 km/h 25 % 0 in /  0.0 mm
16:51 80.2 °F /  26.8 °C 41.2 °F /  5.1 °C 30.1 in /  1018.8 hPa WSW 8.1 mph /  13.0 km/h 8.1 mph /  13.0 km/h 25 % 0 in /  0.0 mm
16:56 79.9 °F /  26.6 °C 40.8 °F /  4.9 °C 30.1 in /  1018.8 hPa WSW 8.1 mph /  13.0 km/h 8.1 mph /  13.0 km/h 25 % 0 in /  0.0 mm
17:01 79.9 °F /  26.6 °C 40.8 °F /  4.9 °C 30.1 in /  1018.8 hPa WSW 8.1 mph /  13.0 km/h 8.1 mph /  13.0 km/h 25 % 0 in /  0.0 mm
17:06 80.2 °F /  26.8 °C 42.3 °F /  5.7 °C 30.1 in /  1018.8 hPa WSW 5.8 mph /  9.3 km/h 5.8 mph /  9.3 km/h 26 % 0 in /  0.0 mm
17:11 80.1 °F /  26.7 °C 42.1 °F /  5.6 °C 30.1 in /  1017.8 hPa South 5.8 mph /  9.3 km/h 5.8 mph /  9.3 km/h 26 % 0 in /  0.0 mm
17:16 80.1 °F /  26.7 °C 41.2 °F /  5.1 °C 30.1 in /  1017.8 hPa SW 6.9 mph /  11.1 km/h 6.9 mph /  11.1 km/h 25 % 0 in /  0.0 mm
17:18 79.9 °F /  26.6 °C 40.8 °F /  4.9 °C 30.1 in /  1017.8 hPa South 5.8 mph /  9.3 km/h 5.8 mph /  9.3 km/h 25 % 0 in /  0.0 mm
17:23 79.5 °F /  26.4 °C 40.6 °F /  4.8 °C 30.1 in /  1017.8 hPa SSW 4.6 mph /  7.4 km/h 4.6 mph /  7.4 km/h 25 % 0 in /  0.0 mm
17:28 79.7 °F /  26.5 °C 41.7 °F /  5.4 °C 30.1 in /  1017.8 hPa WSW 6.9 mph /  11.1 km/h 6.9 mph /  11.1 km/h 26 % 0 in /  0.0 mm
17:33 78.8 °F /  26.0 °C 41 °F /  5.0 °C 30.1 in /  1017.8 hPa South 6.9 mph /  11.1 km/h 6.9 mph /  11.1 km/h 26 % 0 in /  0.0 mm
17:38 78.8 °F /  26.0 °C 39.9 °F /  4.4 °C 30.1 in /  1017.8 hPa SW 6.4 mph /  10.3 km/h 6.4 mph /  10.3 km/h 25 % 0 in /  0.0 mm
17:43 78.6 °F /  25.9 °C 40.8 °F /  4.9 °C 30.1 in /  1017.8 hPa WSW 8.1 mph /  13.0 km/h 8.1 mph /  13.0 km/h 26 % 0 in /  0.0 mm
17:48 78.4 °F /  25.8 °C 40.6 °F /  4.8 °C 30.1 in /  1017.8 hPa SW 8.1 mph /  13.0 km/h 8.1 mph /  13.0 km/h 26 % 0 in /  0.0 mm
17:53 78.1 °F /  25.6 °C 40.5 °F /  4.7 °C 30 in /  1016.8 hPa West 4.6 mph /  7.4 km/h 4.6 mph /  7.4 km/h 26 % 0 in /  0.0 mm
17:58 78.1 °F /  25.6 °C 40.5 °F /  4.7 °C 30 in /  1016.8 hPa SSW 6.2 mph /  10.0 km/h 6.2 mph /  10.0 km/h 26 % 0 in /  0.0 mm
18:03 77.7 °F /  25.4 °C 40.1 °F /  4.5 °C 30 in /  1016.8 hPa SSW 6.9 mph /  11.1 km/h 6.9 mph /  11.1 km/h 26 % 0 in /  0.0 mm
18:08 77.5 °F /  25.3 °C 39.9 °F /  4.4 °C 30 in /  1016.8 hPa SSW 5.8 mph /  9.3 km/h 5.8 mph /  9.3 km/h 26 % 0 in /  0.0 mm
18:13 77.4 °F /  25.2 °C 39.7 °F /  4.3 °C 30 in /  1016.8 hPa SSE 5.8 mph /  9.3 km/h 5.8 mph /  9.3 km/h 26 % 0 in /  0.0 mm
18:18 77.4 °F /  25.2 °C 39.7 °F /  4.3 °C 30 in /  1016.8 hPa WSW 5.8 mph /  9.3 km/h 5.8 mph /  9.3 km/h 26 % 0 in /  0.0 mm
18:23 77.2 °F /  25.1 °C 39.6 °F /  4.2 °C 30 in /  1015.8 hPa SW 4.6 mph /  7.4 km/h 4.6 mph /  7.4 km/h 26 % 0 in /  0.0 mm
18:28 77.2 °F /  25.1 °C 40.6 °F /  4.8 °C 30 in /  1015.8 hPa SW 3.5 mph /  5.6 km/h 3.5 mph /  5.6 km/h 27 % 0 in /  0.0 mm
18:33 77 °F /  25.0 °C 40.5 °F /  4.7 °C 30 in /  1015.8 hPa SW 3.5 mph /  5.6 km/h 3.5 mph /  5.6 km/h 27 % 0 in /  0.0 mm
18:38 76.8 °F /  24.9 °C 41.2 °F /  5.1 °C 30 in /  1015.8 hPa SW 4.6 mph /  7.4 km/h 4.6 mph /  7.4 km/h 28 % 0 in /  0.0 mm
18:43 76.5 °F /  24.7 °C 40.8 °F /  4.9 °C 30 in /  1015.8 hPa SSW 3.5 mph /  5.6 km/h 3.5 mph /  5.6 km/h 28 % 0 in /  0.0 mm
18:48 76.3 °F /  24.6 °C 40.8 °F /  4.9 °C 30 in /  1015.8 hPa SSW 5.8 mph /  9.3 km/h 5.8 mph /  9.3 km/h 28 % 0 in /  0.0 mm
18:53 75.7 °F /  24.3 °C 40.3 °F /  4.6 °C 30 in /  1015.8 hPa SW 4.6 mph /  7.4 km/h 4.6 mph /  7.4 km/h 28 % 0 in /  0.0 mm
18:58 75.6 °F /  24.2 °C 40.3 °F /  4.6 °C 30 in /  1015.8 hPa SW 3.5 mph /  5.6 km/h 3.5 mph /  5.6 km/h 28 % 0 in /  0.0 mm
19:03 75.6 °F /  24.2 °C 40.3 °F /  4.6 °C 30 in /  1015.8 hPa SSW 4.6 mph /  7.4 km/h 4.6 mph /  7.4 km/h 28 % 0 in /  0.0 mm
19:08 75.4 °F /  24.1 °C 39.9 °F /  4.4 °C 30 in /  1015.8 hPa SSW 2.3 mph /  3.7 km/h 2.3 mph /  3.7 km/h 28 % 0 in /  0.0 mm
19:13 75.2 °F /  24.0 °C 39.7 °F /  4.3 °C 30 in /  1015.8 hPa SW 4.6 mph /  7.4 km/h 4.6 mph /  7.4 km/h 28 % 0 in /  0.0 mm
19:18 74.8 °F /  23.8 °C 39.6 °F /  4.2 °C 30 in /  1015.8 hPa SW 6.9 mph /  11.1 km/h 6.9 mph /  11.1 km/h 28 % 0 in /  0.0 mm
19:23 74.7 °F /  23.7 °C 40.3 °F /  4.6 °C 30 in /  1015.8 hPa WSW 3.6 mph /  5.8 km/h 3.6 mph /  5.8 km/h 29 % 0 in /  0.0 mm
19:28 74.8 °F /  23.8 °C 40.5 °F /  4.7 °C 30 in /  1015.8 hPa SW 4.6 mph /  7.4 km/h 4.6 mph /  7.4 km/h 29 % 0 in /  0.0 mm
19:33 74.7 °F /  23.7 °C 40.3 °F /  4.6 °C 30 in /  1015.8 hPa SSW 2.3 mph /  3.7 km/h 2.4 mph /  3.9 km/h 29 % 0 in /  0.0 mm
19:38 74.3 °F /  23.5 °C 39.9 °F /  4.4 °C 30 in /  1015.8 hPa SW 3.5 mph /  5.6 km/h 3.5 mph /  5.6 km/h 29 % 0 in /  0.0 mm
19:43 74.1 °F /  23.4 °C 39.7 °F /  4.3 °C 30 in /  1015.8 hPa SW 4.6 mph /  7.4 km/h 4.6 mph /  7.4 km/h 29 % 0 in /  0.0 mm
19:45 64.2 °F /  17.9 °C 45.1 °F /  7.3 °C 30 in /  1015.8 hPa Calm   1 mph /  1.6 km/h 50 % 0 in /  0.0 mm
19:48 73.9 °F /  23.3 °C 39.7 °F /  4.3 °C 30 in /  1015.8 hPa SW 3.5 mph /  5.6 km/h 3.5 mph /  5.6 km/h 29 % 0 in /  0.0 mm
19:53 73.6 °F /  23.1 °C 39.4 °F /  4.1 °C 30 in /  1015.8 hPa West 4.6 mph /  7.4 km/h 4.6 mph /  7.4 km/h 29 % 0 in /  0.0 mm
19:55 63.9 °F /  17.7 °C 45 °F /  7.2 °C 30 in /  1015.8 hPa Calm   3 mph /  4.8 km/h 50 % 0 in /  0.0 mm
19:58 73.4 °F /  23.0 °C 39.2 °F /  4.0 °C 30 in /  1015.8 hPa SW 3.5 mph /  5.6 km/h 3.5 mph /  5.6 km/h 29 % 0 in /  0.0 mm
20:03 73.4 °F /  23.0 °C 40.1 °F /  4.5 °C 30 in /  1015.8 hPa SSW 3.5 mph /  5.6 km/h 3.5 mph /  5.6 km/h 30 % 0 in /  0.0 mm
20:05 63.1 °F /  17.3 °C 44.8 °F /  7.1 °C 30 in /  1015.8 hPa Calm     51 % 0 in /  0.0 mm
20:08 73 °F /  22.8 °C 40.6 °F /  4.8 °C 30 in /  1015.8 hPa WSW 4.6 mph /  7.4 km/h 4.6 mph /  7.4 km/h 31 % 0 in /  0.0 mm
20:13 72.7 °F /  22.6 °C 40.3 °F /  4.6 °C 30 in /  1015.8 hPa SW 4 mph /  6.4 km/h 4 mph /  6.4 km/h 31 % 0 in /  0.0 mm
20:15 62.8 °F /  17.1 °C 44.4 °F /  6.9 °C 30 in /  1014.8 hPa East 1 mph /  1.6 km/h 1 mph /  1.6 km/h 51 % 0 in /  0.0 mm
20:18 72.5 °F /  22.5 °C 40.1 °F /  4.5 °C 30 in /  1015.8 hPa West 2.3 mph /  3.7 km/h 2.4 mph /  3.9 km/h 31 % 0 in /  0.0 mm
20:23 72.1 °F /  22.3 °C 39.7 °F /  4.3 °C 30 in /  1015.8 hPa WSW 3.1 mph /  5.0 km/h 3.1 mph /  5.0 km/h 31 % 0 in /  0.0 mm
20:25 62.4 °F /  16.9 °C 44.6 °F /  7.0 °C 30 in /  1014.8 hPa Calm   1 mph /  1.6 km/h 52 % 0 in /  0.0 mm
20:28 72.1 °F /  22.3 °C 40.6 °F /  4.8 °C 30 in /  1015.8 hPa SW 3.5 mph /  5.6 km/h 3.5 mph /  5.6 km/h 32 % 0 in /  0.0 mm
20:33 71.8 °F /  22.1 °C 40.3 °F /  4.6 °C 30 in /  1015.8 hPa SW 2.3 mph /  3.7 km/h 2.3 mph /  3.7 km/h 32 % 0 in /  0.0 mm
20:35 62.6 °F /  17.0 °C 44.8 °F /  7.1 °C 30 in /  1014.8 hPa Calm   1 mph /  1.6 km/h 52 % 0 in /  0.0 mm
20:38 71.4 °F /  21.9 °C 39.9 °F /  4.4 °C 30 in /  1015.8 hPa SW 4.6 mph /  7.4 km/h 4.6 mph /  7.4 km/h 32 % 0 in /  0.0 mm
20:43 71.2 °F /  21.8 °C 40.6 °F /  4.8 °C 30 in /  1015.8 hPa SW 2.3 mph /  3.7 km/h 2.3 mph /  3.7 km/h 33 % 0 in /  0.0 mm
20:45 62.2 °F /  16.8 °C 45.3 °F /  7.4 °C 30 in /  1014.8 hPa Calm   1 mph /  1.6 km/h 54 % 0 in /  0.0 mm
20:48 71.1 °F /  21.7 °C 40.5 °F /  4.7 °C 30 in /  1015.8 hPa WSW 3.5 mph /  5.6 km/h 3.5 mph /  5.6 km/h 33 % 0 in /  0.0 mm
20:53 70.9 °F /  21.6 °C 41.2 °F /  5.1 °C 30 in /  1015.8 hPa SW 3.5 mph /  5.6 km/h 3.5 mph /  5.6 km/h 34 % 0 in /  0.0 mm
20:55 62.1 °F /  16.7 °C 45.1 °F /  7.3 °C 30 in /  1014.8 hPa Calm     54 % 0 in /  0.0 mm
20:58 70.5 °F /  21.4 °C 40.8 °F /  4.9 °C 30 in /  1015.8 hPa SW 3.5 mph /  5.6 km/h 3.5 mph /  5.6 km/h 34 % 0 in /  0.0 mm
21:03 70.3 °F /  21.3 °C 41.4 °F /  5.2 °C 30 in /  1015.8 hPa SW 2.3 mph /  3.7 km/h 2.3 mph /  3.7 km/h 35 % 0 in /  0.0 mm
21:08 70.2 °F /  21.2 °C 41.2 °F /  5.1 °C 30 in /  1015.8 hPa WSW 2.3 mph /  3.7 km/h 2.3 mph /  3.7 km/h 35 % 0 in /  0.0 mm
21:13 70 °F /  21.1 °C 41.2 °F /  5.1 °C 30 in /  1015.8 hPa West 2.6 mph /  4.2 km/h 2.6 mph /  4.2 km/h 35 % 0 in /  0.0 mm
21:15 61.7 °F /  16.5 °C 45.9 °F /  7.7 °C 30 in /  1014.8 hPa Calm   1 mph /  1.6 km/h 56 % 0 in /  0.0 mm
21:18 70 °F /  21.1 °C 41.2 °F /  5.1 °C 30 in /  1015.8 hPa West 2.3 mph /  3.7 km/h 2.3 mph /  3.7 km/h 35 % 0 in /  0.0 mm
21:23 69.8 °F /  21.0 °C 41.5 °F /  5.3 °C 30 in /  1015.8 hPa SW 2.3 mph /  3.7 km/h 2.3 mph /  3.7 km/h 36 % 0 in /  0.0 mm
21:25 61.3 °F /  16.3 °C 45.5 °F /  7.5 °C 30 in /  1014.8 hPa Calm   1 mph /  1.6 km/h 56 % 0 in /  0.0 mm
21:28 69.6 °F /  20.9 °C 41.5 °F /  5.3 °C 30 in /  1015.8 hPa WSW 2.3 mph /  3.7 km/h 2.3 mph /  3.7 km/h 36 % 0 in /  0.0 mm
21:33 69.4 °F /  20.8 °C 41.4 °F /  5.2 °C 30 in /  1015.8 hPa West 2.3 mph /  3.7 km/h 2.3 mph /  3.7 km/h 36 % 0 in /  0.0 mm
21:35 61 °F /  16.1 °C 45.7 °F /  7.6 °C 30 in /  1014.8 hPa Calm     57 % 0 in /  0.0 mm
21:38 69.3 °F /  20.7 °C 41.2 °F /  5.1 °C 30 in /  1015.8 hPa West 2.3 mph /  3.7 km/h 2.3 mph /  3.7 km/h 36 % 0 in /  0.0 mm
21:43 69.1 °F /  20.6 °C 41.7 °F /  5.4 °C 30 in /  1015.8 hPa WSW 2.3 mph /  3.7 km/h 2.3 mph /  3.7 km/h 37 % 0 in /  0.0 mm
21:45 60.8 °F /  16.0 °C 45.9 °F /  7.7 °C 30 in /  1014.8 hPa Calm     58 % 0 in /  0.0 mm
21:48 68.9 °F /  20.5 °C 41.5 °F /  5.3 °C 30 in /  1015.8 hPa West 2 mph /  3.2 km/h 2 mph /  3.2 km/h 37 % 0 in /  0.0 mm
21:53 68.7 °F /  20.4 °C 42.1 °F /  5.6 °C 30 in /  1015.8 hPa WSW 1.2 mph /  1.9 km/h   38 % 0 in /  0.0 mm
21:55 60.6 °F /  15.9 °C 45.9 °F /  7.7 °C 30 in /  1014.8 hPa Calm   1 mph /  1.6 km/h 58 % 0 in /  0.0 mm
21:58 68.5 °F /  20.3 °C 41.9 °F /  5.5 °C 30 in /  1015.8 hPa WSW 0.9 mph /  1.4 km/h   38 % 0 in /  0.0 mm
22:03 68.4 °F /  20.2 °C 41.7 °F /  5.4 °C 30 in /  1015.8 hPa SW 1.2 mph /  1.9 km/h   38 % 0 in /  0.0 mm
22:05 60.8 °F /  16.0 °C 46.4 °F /  8.0 °C 30 in /  1014.8 hPa NNW 1 mph /  1.6 km/h 2 mph /  3.2 km/h 59 % 0 in /  0.0 mm
22:08 68.2 °F /  20.1 °C 42.3 °F /  5.7 °C 30 in /  1015.8 hPa Calm     39 % 0 in /  0.0 mm
22:13 68 °F /  20.0 °C 42.1 °F /  5.6 °C 30 in /  1015.8 hPa West 1.2 mph /  1.9 km/h   39 % 0 in /  0.0 mm
22:15 60.6 °F /  15.9 °C 46.2 °F /  7.9 °C 30 in /  1014.8 hPa Calm     59 % 0 in /  0.0 mm
22:18 68 °F /  20.0 °C 42.1 °F /  5.6 °C 30 in /  1015.8 hPa WNW 1.2 mph /  1.9 km/h   39 % 0 in /  0.0 mm
22:23 67.8 °F /  19.9 °C 42.6 °F /  5.9 °C 30 in /  1014.8 hPa SW 1.2 mph /  1.9 km/h 1.2 mph /  1.9 km/h 40 % 0 in /  0.0 mm
22:25 60.3 °F /  15.7 °C 46.2 °F /  7.9 °C 29.9 in /  1013.8 hPa Calm     60 % 0 in /  0.0 mm
22:28 67.6 °F /  19.8 °C 42.4 °F /  5.8 °C 30 in /  1014.8 hPa SW 2.3 mph /  3.7 km/h 2.3 mph /  3.7 km/h 40 % 0 in /  0.0 mm
22:33 67.5 °F /  19.7 °C 43 °F /  6.1 °C 30 in /  1014.8 hPa SW 2.6 mph /  4.2 km/h 2.6 mph /  4.2 km/h 41 % 0 in /  0.0 mm
22:35 59.9 °F /  15.5 °C 46 °F /  7.8 °C 29.9 in /  1013.8 hPa Calm     60 % 0 in /  0.0 mm
22:38 67.3 °F /  19.6 °C 42.8 °F /  6.0 °C 30 in /  1015.8 hPa WSW 2.3 mph /  3.7 km/h 2.3 mph /  3.7 km/h 41 % 0 in /  0.0 mm
22:43 67.3 °F /  19.6 °C 42.8 °F /  6.0 °C 30 in /  1015.8 hPa WSW 3.5 mph /  5.6 km/h 3.5 mph /  5.6 km/h 41 % 0 in /  0.0 mm
22:45 59.4 °F /  15.2 °C 45.5 °F /  7.5 °C 29.9 in /  1013.8 hPa NE 2 mph /  3.2 km/h 2 mph /  3.2 km/h 60 % 0 in /  0.0 mm
22:48 66.9 °F /  19.4 °C 42.4 °F /  5.8 °C 30 in /  1015.8 hPa SW 2.3 mph /  3.7 km/h   41 % 0 in /  0.0 mm
22:53 66.7 °F /  19.3 °C 43 °F /  6.1 °C 30 in /  1015.8 hPa WSW 1.2 mph /  1.9 km/h 1.2 mph /  1.9 km/h 42 % 0 in /  0.0 mm
22:55 58.8 °F /  14.9 °C 45.9 °F /  7.7 °C 30 in /  1014.8 hPa Calm   2 mph /  3.2 km/h 62 % 0 in /  0.0 mm
22:58 66.6 °F /  19.2 °C 42.6 °F /  5.9 °C 30 in /  1015.8 hPa WSW 2.3 mph /  3.7 km/h 2.3 mph /  3.7 km/h 42 % 0 in /  0.0 mm
23:03 66.4 °F /  19.1 °C 42.6 °F /  5.9 °C 30 in /  1015.8 hPa SW 2.3 mph /  3.7 km/h 2.3 mph /  3.7 km/h 42 % 0 in /  0.0 mm
23:05 58.5 °F /  14.7 °C 45.5 °F /  7.5 °C 30 in /  1014.8 hPa Calm     62 % 0 in /  0.0 mm
23:08 66.2 °F /  19.0 °C 42.4 °F /  5.8 °C 30 in /  1015.8 hPa SW 2.4 mph /  3.9 km/h 2.4 mph /  3.9 km/h 42 % 0 in /  0.0 mm
23:13 66.2 °F /  19.0 °C 43 °F /  6.1 °C 30 in /  1015.8 hPa WSW 2.3 mph /  3.7 km/h 2.3 mph /  3.7 km/h 43 % 0 in /  0.0 mm
23:15 58.3 °F /  14.6 °C 45.7 °F /  7.6 °C 30 in /  1014.8 hPa Calm     63 % 0 in /  0.0 mm
23:18 65.8 °F /  18.8 °C 43.3 °F /  6.3 °C 30 in /  1015.8 hPa SW 2.3 mph /  3.7 km/h 2.3 mph /  3.7 km/h 44 % 0 in /  0.0 mm
23:23 65.8 °F /  18.8 °C 43.3 °F /  6.3 °C 30 in /  1015.8 hPa WSW 2.6 mph /  4.2 km/h 2.6 mph /  4.2 km/h 44 % 0 in /  0.0 mm
23:25 58.1 °F /  14.5 °C 45.7 °F /  7.6 °C 30 in /  1014.8 hPa Calm   3 mph /  4.8 km/h 63 % 0 in /  0.0 mm
23:28 65.7 °F /  18.7 °C 43.2 °F /  6.2 °C 30 in /  1015.8 hPa WSW 2.3 mph /  3.7 km/h 2.3 mph /  3.7 km/h 44 % 0 in /  0.0 mm
23:33 65.7 °F /  18.7 °C 43.7 °F /  6.5 °C 30 in /  1015.8 hPa WSW 2.3 mph /  3.7 km/h 2.3 mph /  3.7 km/h 45 % 0 in /  0.0 mm
23:35 57.9 °F /  14.4 °C 45.3 °F /  7.4 °C 30 in /  1014.8 hPa Calm   2 mph /  3.2 km/h 63 % 0 in /  0.0 mm
23:38 65.5 °F /  18.6 °C 43.5 °F /  6.4 °C 30 in /  1015.8 hPa SW 2.3 mph /  3.7 km/h 2.3 mph /  3.7 km/h 45 % 0 in /  0.0 mm
23:43 65.5 °F /  18.6 °C 43.5 °F /  6.4 °C 30 in /  1015.8 hPa WSW 2.3 mph /  3.7 km/h 2.3 mph /  3.7 km/h 45 % 0 in /  0.0 mm
23:45 57.9 °F /  14.4 °C 45.3 °F /  7.4 °C 30 in /  1014.8 hPa Calm     63 % 0 in /  0.0 mm
23:53 65.5 °F /  18.6 °C 44.1 °F /  6.7 °C 30 in /  1015.8 hPa West 1.6 mph /  2.6 km/h 1.6 mph /  2.6 km/h 46 % 0 in /  0.0 mm
23:55 57.6 °F /  14.2 °C 45.1 °F /  7.3 °C 30 in /  1014.8 hPa WSW 1 mph /  1.6 km/h 2 mph /  3.2 km/h 63 % 0 in /  0.0 mm
23:58 65.5 °F /  18.6 °C 44.1 °F /  6.7 °C 30 in /  1015.8 hPa West 1.2 mph /  1.9 km/h   46 % 0 in /  0.0 mm
Meteo Sesrovires
Elogis d' Weather Underground - 3.75 mb

Guio original per  Jim McMurry - jmcmurry@mwt.net Adaptat per a la plantilla per  Wim van der Kuil - Leuven-Template.eu

Trobareu la nostra informacio del temps tambe a:

Weather Underground

AWEKAS